createdAt,value
2024-05-09T00:01:01.067Z,0.060
2024-05-09T00:05:07.099Z,0.059
2024-05-09T00:06:19.818Z,0.059
2024-05-09T00:08:22.195Z,0.059
2024-05-09T00:10:29.102Z,0.060
2024-05-09T00:12:22.010Z,0.060
2024-05-09T00:14:28.355Z,0.061
2024-05-09T00:16:22.286Z,0.061
2024-05-09T00:18:23.374Z,0.062
2024-05-09T00:20:28.122Z,0.064
2024-05-09T00:22:25.195Z,0.064
2024-05-09T00:24:22.073Z,0.065
2024-05-09T00:26:19.402Z,0.064
2024-05-09T00:28:28.214Z,0.063
2024-05-09T00:30:34.236Z,0.064
2024-05-09T00:32:22.369Z,0.062
2024-05-09T00:34:22.188Z,0.062
2024-05-09T00:36:28.396Z,0.060
2024-05-09T00:38:25.005Z,0.058
2024-05-09T00:40:30.876Z,0.057
2024-05-09T00:42:22.029Z,0.057
2024-05-09T00:44:25.351Z,0.059
2024-05-09T00:46:24.963Z,0.059
2024-05-09T00:48:21.627Z,0.060
2024-05-09T00:50:29.456Z,0.058
2024-05-09T00:52:21.974Z,0.057
2024-05-09T00:54:25.210Z,0.057
2024-05-09T00:56:25.415Z,0.058
2024-05-09T00:59:19.408Z,0.057
2024-05-09T01:00:38.144Z,0.059
2024-05-09T01:03:19.989Z,0.060
2024-05-09T01:05:25.302Z,0.061
2024-05-09T01:07:34.424Z,0.063
2024-05-09T01:09:28.650Z,0.063
2024-05-09T01:11:25.149Z,0.064
2024-05-09T01:13:28.394Z,0.064
2024-05-09T01:15:19.334Z,0.063
2024-05-09T01:16:33.509Z,0.064
2024-05-09T01:19:28.238Z,0.064
2024-05-09T01:20:39.045Z,0.063
2024-05-09T01:23:31.777Z,0.062
2024-05-09T01:25:19.318Z,0.060
2024-05-09T01:27:22.126Z,0.060
2024-05-09T01:29:22.085Z,0.063
2024-05-09T01:31:19.337Z,0.062
2024-05-09T01:33:22.243Z,0.062
2024-05-09T01:35:21.109Z,0.063
2024-05-09T01:37:22.070Z,0.065
2024-05-09T01:39:22.030Z,0.067
2024-05-09T01:41:19.426Z,0.066
2024-05-09T01:43:21.935Z,0.066
2024-05-09T01:45:23.478Z,0.066
2024-05-09T01:47:19.502Z,0.066
2024-05-09T01:49:22.453Z,0.066
2024-05-09T01:51:28.485Z,0.070
2024-05-09T01:53:23.005Z,0.070
2024-05-09T01:55:22.142Z,0.070
2024-05-09T01:57:19.769Z,0.070
2024-05-09T01:59:22.467Z,0.069
2024-05-09T02:01:28.633Z,0.068
2024-05-09T02:03:22.399Z,0.068
2024-05-09T02:05:22.379Z,0.066
2024-05-09T02:07:19.375Z,0.066
2024-05-09T02:09:22.426Z,0.065
2024-05-09T02:11:19.483Z,0.066
2024-05-09T02:13:28.565Z,0.065
2024-05-09T02:15:28.367Z,0.064
2024-05-09T02:17:19.452Z,0.065
2024-05-09T02:19:21.315Z,0.065
2024-05-09T02:21:19.400Z,0.066
2024-05-09T02:23:19.448Z,0.069
2024-05-09T02:25:19.349Z,0.070
2024-05-09T02:27:24.595Z,0.072
2024-05-09T02:29:22.124Z,0.071
2024-05-09T02:31:19.518Z,0.073
2024-05-09T02:33:23.227Z,0.074
2024-05-09T02:35:25.256Z,0.072
2024-05-09T02:37:22.124Z,0.071
2024-05-09T02:39:25.414Z,0.071
2024-05-09T02:41:19.473Z,0.072
2024-05-09T02:43:25.329Z,0.071
2024-05-09T02:45:25.158Z,0.072
2024-05-09T02:47:22.165Z,0.071
2024-05-09T02:49:19.535Z,0.069
2024-05-09T02:51:19.395Z,0.067
2024-05-09T02:53:22.213Z,0.068
2024-05-09T02:55:28.300Z,0.068
2024-05-09T02:57:19.426Z,0.069
2024-05-09T02:59:19.428Z,0.071
2024-05-09T03:01:19.450Z,0.071
2024-05-09T03:03:19.725Z,0.071
2024-05-09T03:05:22.194Z,0.074
2024-05-09T03:07:20.304Z,0.072
2024-05-09T03:09:19.385Z,0.074
2024-05-09T03:11:19.640Z,0.073
2024-05-09T03:13:19.426Z,0.074
2024-05-09T03:15:22.039Z,0.076
2024-05-09T03:17:19.481Z,0.075
2024-05-09T03:19:19.494Z,0.074
2024-05-09T03:21:19.406Z,0.074
2024-05-09T03:23:19.413Z,0.073
2024-05-09T03:25:28.174Z,0.072
2024-05-09T03:27:22.681Z,0.071
2024-05-09T03:29:33.880Z,0.071
2024-05-09T03:31:19.417Z,0.071
2024-05-09T03:33:25.737Z,0.071
2024-05-09T03:35:22.497Z,0.072
2024-05-09T03:37:22.457Z,0.073
2024-05-09T03:39:22.142Z,0.073
2024-05-09T03:41:22.283Z,0.075
2024-05-09T03:43:25.107Z,0.074
2024-05-09T03:45:22.325Z,0.074
2024-05-09T03:47:19.568Z,0.074
2024-05-09T03:49:22.529Z,0.074
2024-05-09T03:51:26.396Z,0.076
2024-05-09T03:53:25.484Z,0.073
2024-05-09T03:55:25.486Z,0.072
2024-05-09T03:57:21.298Z,0.072
2024-05-09T03:59:22.243Z,0.070
2024-05-09T04:01:28.383Z,0.070
2024-05-09T04:03:19.582Z,0.072
2024-05-09T04:05:19.975Z,0.072
2024-05-09T04:07:19.475Z,0.074
2024-05-09T04:09:19.447Z,0.072
2024-05-09T04:11:23.078Z,0.071
2024-05-09T04:13:19.492Z,0.073
2024-05-09T04:15:19.472Z,0.073
2024-05-09T04:17:19.540Z,0.072
2024-05-09T04:19:19.779Z,0.073
2024-05-09T04:21:19.555Z,0.074
2024-05-09T04:23:19.535Z,0.075
2024-05-09T04:25:19.606Z,0.076
2024-05-09T04:27:19.468Z,0.077
2024-05-09T04:29:19.539Z,0.077
2024-05-09T04:31:21.564Z,0.077
2024-05-09T04:34:19.529Z,0.078
2024-05-09T04:36:19.477Z,0.078
2024-05-09T04:38:19.518Z,0.077
2024-05-09T04:40:28.091Z,0.076
2024-05-09T04:42:22.847Z,0.073
2024-05-09T04:44:19.548Z,0.076
2024-05-09T04:46:19.581Z,0.076
2024-05-09T04:48:19.733Z,0.076
2024-05-09T04:50:29.064Z,0.075
2024-05-09T04:52:19.507Z,0.077
2024-05-09T04:54:26.275Z,0.080
2024-05-09T04:56:19.539Z,0.079
2024-05-09T04:58:19.532Z,0.078
2024-05-09T05:00:28.451Z,0.079
2024-05-09T05:02:19.713Z,0.079
2024-05-09T05:04:19.642Z,0.075
2024-05-09T05:06:19.534Z,0.074
2024-05-09T05:08:19.858Z,0.071
2024-05-09T05:10:25.231Z,0.072
2024-05-09T05:12:19.724Z,0.074
2024-05-09T05:14:19.552Z,0.070
2024-05-09T05:16:19.666Z,0.072
2024-05-09T05:18:19.938Z,0.074
2024-05-09T05:20:27.367Z,0.073
2024-05-09T05:22:19.904Z,0.071
2024-05-09T05:24:22.659Z,0.072
2024-05-09T05:26:19.520Z,0.071
2024-05-09T05:28:19.558Z,0.071
2024-05-09T05:30:25.020Z,0.072
2024-05-09T05:32:19.697Z,0.070
2024-05-09T05:34:19.441Z,0.069
2024-05-09T05:36:19.585Z,0.072
2024-05-09T05:38:27.431Z,0.072
2024-05-09T05:40:28.146Z,0.071
2024-05-09T05:42:19.503Z,0.074
2024-05-09T05:44:22.519Z,0.073
2024-05-09T05:46:19.570Z,0.074
2024-05-09T05:48:19.656Z,0.073
2024-05-09T05:50:27.385Z,0.074
2024-05-09T05:52:19.487Z,0.072
2024-05-09T05:55:57.729Z,0.070
2024-05-09T05:57:57.680Z,0.071
2024-05-09T05:59:57.640Z,0.068
2024-05-09T06:01:57.767Z,0.068
2024-05-09T06:03:57.668Z,0.068
2024-05-09T06:05:57.865Z,0.069
2024-05-09T06:07:57.838Z,0.072
2024-05-09T06:09:57.684Z,0.074
2024-05-09T06:12:02.828Z,0.072
2024-05-09T06:13:57.688Z,0.073
2024-05-09T06:15:57.637Z,0.073
2024-05-09T06:17:57.851Z,0.070
2024-05-09T06:19:58.240Z,0.072
2024-05-09T06:21:57.685Z,0.071
2024-05-09T06:23:57.838Z,0.072
2024-05-09T06:25:58.610Z,0.071
2024-05-09T06:27:58.949Z,0.071
2024-05-09T06:29:57.670Z,0.071
2024-05-09T06:32:00.178Z,0.070
2024-05-09T06:34:12.103Z,0.071
2024-05-09T06:35:57.743Z,0.069
2024-05-09T06:37:57.640Z,0.067
2024-05-09T06:39:57.650Z,0.067
2024-05-09T06:41:57.689Z,0.066
2024-05-09T06:43:57.716Z,0.067
2024-05-09T06:46:00.716Z,0.067
2024-05-09T06:47:57.862Z,0.066
2024-05-09T06:49:58.038Z,0.068
2024-05-09T06:51:57.866Z,0.069
2024-05-09T06:53:57.769Z,0.068
2024-05-09T06:55:57.750Z,0.070
2024-05-09T06:59:00.769Z,0.071
2024-05-09T07:00:57.886Z,0.070
2024-05-09T07:02:59.662Z,0.071
2024-05-09T07:04:57.860Z,0.072
2024-05-09T07:06:57.766Z,0.071
2024-05-09T07:08:57.742Z,0.072
2024-05-09T07:10:57.861Z,0.072
2024-05-09T07:12:57.809Z,0.071
2024-05-09T07:14:57.741Z,0.068
2024-05-09T07:17:02.421Z,0.070
2024-05-09T07:18:57.906Z,0.070
2024-05-09T07:20:19.957Z,0.069
2024-05-09T07:23:00.859Z,0.067
2024-05-09T07:24:58.249Z,0.066
2024-05-09T07:27:00.671Z,0.064
2024-05-09T07:29:00.846Z,0.063
2024-05-09T07:30:13.551Z,0.062
2024-05-09T07:32:57.952Z,0.062
2024-05-09T07:35:00.593Z,0.063
2024-05-09T07:36:09.005Z,0.064
2024-05-09T07:38:57.683Z,0.064
2024-05-09T07:41:01.042Z,0.066
2024-05-09T07:43:00.376Z,0.065
2024-05-09T07:45:14.545Z,0.063
2024-05-09T07:50:35.850Z,0.062
2024-05-09T07:53:29.287Z,0.062
2024-05-09T07:54:58.636Z,0.062
2024-05-09T07:57:00.869Z,0.060
2024-05-09T07:59:00.803Z,0.059
2024-05-09T08:01:00.512Z,0.061
2024-05-09T08:03:03.025Z,0.061
2024-05-09T08:05:00.664Z,0.061
2024-05-09T08:07:12.117Z,0.064
2024-05-09T08:09:05.331Z,0.063
2024-05-09T08:11:03.665Z,0.062
2024-05-09T08:13:00.492Z,0.060
2024-05-09T08:14:57.715Z,0.064
2024-05-09T08:17:00.841Z,0.065
2024-05-09T08:19:06.575Z,0.065
2024-05-09T08:20:57.685Z,0.066
2024-05-09T08:23:00.609Z,0.066
2024-05-09T08:24:57.779Z,0.068
2024-05-09T08:27:00.430Z,0.069
2024-05-09T08:29:00.606Z,0.068
2024-05-09T08:31:04.157Z,0.068
2024-05-09T08:32:57.834Z,0.068
2024-05-09T08:35:00.646Z,0.064
2024-05-09T08:37:06.136Z,0.063
2024-05-09T08:38:57.866Z,0.064
2024-05-09T08:41:12.068Z,0.061
2024-05-09T08:42:57.836Z,0.063
2024-05-09T08:44:57.873Z,0.063
2024-05-09T08:47:02.901Z,0.064
2024-05-09T08:48:57.947Z,0.061
2024-05-09T08:51:00.400Z,0.062
2024-05-09T08:52:57.935Z,0.062
2024-05-09T08:55:00.839Z,0.065
2024-05-09T08:57:12.089Z,0.067
2024-05-09T08:59:03.467Z,0.065
2024-05-09T09:00:57.943Z,0.062
2024-05-09T09:03:00.569Z,0.061
2024-05-09T09:05:00.707Z,0.063
2024-05-09T09:06:58.763Z,0.059
2024-05-09T09:09:09.946Z,0.060
2024-05-09T09:10:57.772Z,0.060
2024-05-09T09:13:00.844Z,0.062
2024-05-09T09:14:57.763Z,0.060
2024-05-09T09:16:58.787Z,0.059
2024-05-09T09:18:58.198Z,0.060
2024-05-09T09:21:02.183Z,0.062
2024-05-09T09:22:58.050Z,0.062
2024-05-09T09:24:57.863Z,0.061
2024-05-09T09:26:57.899Z,0.061
2024-05-09T09:28:57.888Z,0.062
2024-05-09T09:30:57.981Z,0.062
2024-05-09T09:32:57.979Z,0.062
2024-05-09T09:35:00.830Z,0.064
2024-05-09T09:36:59.706Z,0.065
2024-05-09T09:38:57.840Z,0.068
2024-05-09T09:40:57.813Z,0.069
2024-05-09T09:42:57.982Z,0.067
2024-05-09T09:45:04.443Z,0.067
2024-05-09T09:46:57.934Z,0.066
2024-05-09T09:49:00.548Z,0.066
2024-05-09T09:50:57.818Z,0.066
2024-05-09T09:52:57.878Z,0.065
2024-05-09T09:54:57.903Z,0.063
2024-05-09T09:56:57.962Z,0.062
2024-05-09T09:58:57.879Z,0.064
2024-05-09T10:01:02.021Z,0.065
2024-05-09T10:02:58.006Z,0.065
2024-05-09T10:04:58.014Z,0.064
2024-05-09T10:06:58.023Z,0.065
2024-05-09T10:09:00.474Z,0.065
2024-05-09T10:10:57.922Z,0.066
2024-05-09T10:12:57.977Z,0.066
2024-05-09T10:14:57.862Z,0.065
2024-05-09T10:16:57.948Z,0.063
2024-05-09T10:18:58.575Z,0.062
2024-05-09T10:20:58.215Z,0.062
2024-05-09T10:23:01.082Z,0.060
2024-05-09T10:24:57.926Z,0.061
2024-05-09T10:26:58.324Z,0.061
2024-05-09T10:28:57.953Z,0.063
2024-05-09T10:30:58.769Z,0.064
2024-05-09T10:32:57.920Z,0.064
2024-05-09T10:34:58.131Z,0.064
2024-05-09T10:36:57.928Z,0.065
2024-05-09T10:38:57.876Z,0.063
2024-05-09T10:40:58.091Z,0.064
2024-05-09T10:42:57.909Z,0.065
2024-05-09T10:44:57.989Z,0.065
2024-05-09T10:46:57.888Z,0.063
2024-05-09T10:48:58.115Z,0.064
2024-05-09T10:50:57.823Z,0.064
2024-05-09T10:54:01.075Z,0.062
2024-05-09T10:55:57.935Z,0.061
2024-05-09T10:57:58.028Z,0.061
2024-05-09T10:59:57.862Z,0.062
2024-05-09T11:01:58.057Z,0.060
2024-05-09T11:03:58.020Z,0.060
2024-05-09T11:05:58.040Z,0.060
2024-05-09T11:07:58.264Z,0.060
2024-05-09T11:09:57.984Z,0.059
2024-05-09T11:11:57.850Z,0.057
2024-05-09T11:13:58.091Z,0.057
2024-05-09T11:15:58.164Z,0.058
2024-05-09T11:17:57.959Z,0.059
2024-05-09T11:19:58.417Z,0.058
2024-05-09T11:21:58.239Z,0.057
2024-05-09T11:23:57.924Z,0.056
2024-05-09T11:25:58.025Z,0.055
2024-05-09T11:27:58.168Z,0.057
2024-05-09T11:29:58.140Z,0.056
2024-05-09T11:31:57.921Z,0.054
2024-05-09T11:33:57.979Z,0.055
2024-05-09T11:36:00.597Z,0.054
2024-05-09T11:37:57.987Z,0.055
2024-05-09T11:40:00.972Z,0.055
2024-05-09T11:41:58.068Z,0.056
2024-05-09T11:43:57.904Z,0.057
2024-05-09T11:45:58.110Z,0.058
2024-05-09T11:47:58.090Z,0.062
2024-05-09T11:49:58.287Z,0.061
2024-05-09T11:51:57.947Z,0.062
2024-05-09T11:53:58.218Z,0.063
2024-05-09T11:56:02.301Z,0.063
2024-05-09T11:57:58.107Z,0.063
2024-05-09T11:59:58.304Z,0.062
2024-05-09T12:02:00.996Z,0.062
2024-05-09T12:04:02.547Z,0.062
2024-05-09T12:05:58.353Z,0.061
2024-05-09T12:08:00.873Z,0.062
2024-05-09T12:09:58.074Z,0.063
2024-05-09T12:11:58.994Z,0.063
2024-05-09T12:16:01.198Z,0.063
2024-05-09T12:21:58.226Z,0.067
2024-05-09T12:26:21.461Z,0.067
2024-05-09T12:28:21.730Z,0.067
2024-05-09T12:30:32.243Z,0.065
2024-05-09T12:32:18.363Z,0.065
2024-05-09T12:34:21.108Z,0.063
2024-05-09T12:36:18.279Z,0.064
2024-05-09T12:37:32.326Z,0.063
2024-05-09T12:40:26.568Z,0.061
2024-05-09T12:42:26.654Z,0.059
2024-05-09T12:44:18.362Z,0.058
2024-05-09T12:46:18.760Z,0.058
2024-05-09T12:48:18.680Z,0.054
2024-05-09T12:50:25.011Z,0.056
2024-05-09T12:52:23.188Z,0.054
2024-05-09T12:54:18.403Z,0.055
2024-05-09T12:56:18.416Z,0.056
2024-05-09T12:58:18.572Z,0.056
2024-05-09T13:00:24.026Z,0.056
2024-05-09T13:02:18.650Z,0.058
2024-05-09T13:04:18.514Z,0.057
2024-05-09T13:06:18.573Z,0.057
2024-05-09T13:08:18.543Z,0.056
2024-05-09T13:10:25.635Z,0.054
2024-05-09T13:12:18.383Z,0.053
2024-05-09T13:14:18.338Z,0.053
2024-05-09T13:16:19.044Z,0.052
2024-05-09T13:18:18.406Z,0.051
2024-05-09T13:20:26.169Z,0.052
2024-05-09T13:22:18.341Z,0.050
2024-05-09T13:24:21.583Z,0.051
2024-05-09T13:26:18.487Z,0.051
2024-05-09T13:28:21.317Z,0.050
2024-05-09T13:30:30.026Z,0.050
2024-05-09T13:32:18.467Z,0.052
2024-05-09T13:34:18.412Z,0.053
2024-05-09T13:36:18.536Z,0.052
2024-05-09T13:38:18.814Z,0.052
2024-05-09T13:40:29.884Z,0.052
2024-05-09T13:42:18.350Z,0.052
2024-05-09T13:44:18.367Z,0.052
2024-05-09T13:46:19.674Z,0.053
2024-05-09T13:48:18.496Z,0.053
2024-05-09T13:50:27.722Z,0.052
2024-05-09T13:52:18.632Z,0.055
2024-05-09T13:54:21.935Z,0.055
2024-05-09T13:56:18.360Z,0.055
2024-05-09T13:58:18.553Z,0.053
2024-05-09T14:00:37.638Z,0.057
2024-05-09T14:02:18.619Z,0.057
2024-05-09T14:04:18.786Z,0.055
2024-05-09T14:06:20.531Z,0.057
2024-05-09T14:08:18.421Z,0.058
2024-05-09T14:10:23.400Z,0.059
2024-05-09T14:12:18.460Z,0.060
2024-05-09T14:14:18.522Z,0.060
2024-05-09T14:16:18.456Z,0.061
2024-05-09T14:18:18.680Z,0.059
2024-05-09T14:20:28.235Z,0.057
2024-05-09T14:22:18.838Z,0.056
2024-05-09T14:24:18.403Z,0.053
2024-05-09T14:26:18.410Z,0.053
2024-05-09T14:28:18.660Z,0.053
2024-05-09T14:30:30.426Z,0.054
2024-05-09T14:32:18.641Z,0.054
2024-05-09T14:34:18.635Z,0.055
2024-05-09T14:36:18.450Z,0.057
2024-05-09T14:38:18.430Z,0.055
2024-05-09T14:40:29.801Z,0.055
2024-05-09T14:42:18.569Z,0.054
2024-05-09T14:44:18.469Z,0.054
2024-05-09T14:46:19.390Z,0.057
2024-05-09T14:48:18.511Z,0.057
2024-05-09T14:50:27.384Z,0.056
2024-05-09T14:52:18.537Z,0.055
2024-05-09T14:54:18.413Z,0.053
2024-05-09T14:56:18.495Z,0.051
2024-05-09T14:58:18.566Z,0.053
2024-05-09T15:00:26.093Z,0.052
2024-05-09T15:02:23.446Z,0.051
2024-05-09T15:04:18.832Z,0.053
2024-05-09T15:06:18.888Z,0.053
2024-05-09T15:08:19.003Z,0.052
2024-05-09T15:10:26.580Z,0.053
2024-05-09T15:12:18.417Z,0.053
2024-05-09T15:14:18.430Z,0.052
2024-05-09T15:16:18.725Z,0.052
2024-05-09T15:18:18.738Z,0.054
2024-05-09T15:20:26.795Z,0.055
2024-05-09T15:22:18.450Z,0.055
2024-05-09T15:24:18.490Z,0.056
2024-05-09T15:26:19.069Z,0.053
2024-05-09T15:28:18.911Z,0.056
2024-05-09T15:30:24.424Z,0.057
2024-05-09T15:32:18.463Z,0.057
2024-05-09T15:34:18.456Z,0.055
2024-05-09T15:36:18.693Z,0.056
2024-05-09T15:38:18.758Z,0.057
2024-05-09T15:40:25.946Z,0.059
2024-05-09T15:42:18.485Z,0.059
2024-05-09T15:44:18.430Z,0.058
2024-05-09T15:46:23.740Z,0.053
2024-05-09T15:48:18.846Z,0.054
2024-05-09T15:50:27.696Z,0.055
2024-05-09T15:52:18.527Z,0.055
2024-05-09T15:54:18.468Z,0.055
2024-05-09T15:56:18.550Z,0.057
2024-05-09T15:58:21.319Z,0.054
2024-05-09T16:00:25.248Z,0.054
2024-05-09T16:02:19.250Z,0.056
2024-05-09T16:04:21.668Z,0.055
2024-05-09T16:06:18.899Z,0.055
2024-05-09T16:08:18.468Z,0.054
2024-05-09T16:11:19.141Z,0.056
2024-05-09T16:13:18.768Z,0.054
2024-05-09T16:15:18.490Z,0.054
2024-05-09T16:17:18.705Z,0.054
2024-05-09T16:19:18.603Z,0.054
2024-05-09T16:21:19.068Z,0.053
2024-05-09T16:23:18.604Z,0.052
2024-05-09T16:25:18.950Z,0.056
2024-05-09T16:27:18.769Z,0.056
2024-05-09T16:29:18.506Z,0.058
2024-05-09T16:31:18.805Z,0.056
2024-05-09T16:33:19.041Z,0.055
2024-05-09T16:35:21.445Z,0.055
2024-05-09T16:37:18.774Z,0.056
2024-05-09T16:39:18.528Z,0.056
2024-05-09T16:41:19.930Z,0.055
2024-05-09T16:43:18.718Z,0.055
2024-05-09T16:45:24.517Z,0.056
2024-05-09T16:47:18.795Z,0.056
2024-05-09T16:49:18.491Z,0.055
2024-05-09T16:51:18.934Z,0.055
2024-05-09T16:53:20.430Z,0.055
2024-05-09T16:55:19.086Z,0.055
2024-05-09T16:57:18.465Z,0.057
2024-05-09T16:59:18.739Z,0.057
2024-05-09T17:01:19.232Z,0.058
2024-05-09T17:03:18.663Z,0.056
2024-05-09T17:05:19.118Z,0.056
2024-05-09T17:07:18.730Z,0.058
2024-05-09T17:09:20.038Z,0.058
2024-05-09T17:11:18.808Z,0.058
2024-05-09T17:13:21.728Z,0.059
2024-05-09T17:15:18.553Z,0.058
2024-05-09T17:17:18.641Z,0.057
2024-05-09T17:19:18.662Z,0.058
2024-05-09T17:21:19.362Z,0.056
2024-05-09T17:23:18.600Z,0.055
2024-05-09T17:25:18.785Z,0.054
2024-05-09T17:27:18.713Z,0.052
2024-05-09T17:29:18.902Z,0.052
2024-05-09T17:31:19.606Z,0.051
2024-05-09T17:33:18.804Z,0.053
2024-05-09T17:35:18.906Z,0.051
2024-05-09T17:37:21.850Z,0.051
2024-05-09T17:39:18.652Z,0.050
2024-05-09T17:41:18.937Z,0.051
2024-05-09T17:43:18.733Z,0.049
2024-05-09T17:45:18.671Z,0.049
2024-05-09T17:47:18.627Z,0.049
2024-05-09T17:49:18.642Z,0.048
2024-05-09T17:51:18.700Z,0.048
2024-05-09T17:53:18.803Z,0.049
2024-05-09T17:55:18.767Z,0.049
2024-05-09T17:57:18.545Z,0.048
2024-05-09T17:59:22.525Z,0.045
2024-05-09T18:01:18.738Z,0.045
2024-05-09T18:03:18.644Z,0.046
2024-05-09T18:05:18.672Z,0.047
2024-05-09T18:07:18.615Z,0.046
2024-05-09T18:09:21.421Z,0.046
2024-05-09T18:11:18.650Z,0.047
2024-05-09T18:13:18.651Z,0.046
2024-05-09T18:15:18.575Z,0.045
2024-05-09T18:17:18.626Z,0.048
2024-05-09T18:19:18.802Z,0.045
2024-05-09T18:21:18.608Z,0.047
2024-05-09T18:23:19.209Z,0.049
2024-05-09T18:25:24.339Z,0.049
2024-05-09T18:27:23.126Z,0.048
2024-05-09T18:29:21.655Z,0.049
2024-05-09T18:31:18.636Z,0.051
2024-05-09T18:33:19.661Z,0.051
2024-05-09T18:35:18.723Z,0.052
2024-05-09T18:37:18.746Z,0.052
2024-05-09T18:39:23.640Z,0.053
2024-05-09T18:41:18.640Z,0.053
2024-05-09T18:43:20.203Z,0.056
2024-05-09T18:45:18.733Z,0.059
2024-05-09T18:47:20.630Z,0.060
2024-05-09T18:49:18.914Z,0.059
2024-05-09T18:53:32.118Z,0.058
2024-05-09T18:55:31.159Z,0.058
2024-05-09T18:57:31.084Z,0.060
2024-05-09T18:59:31.803Z,0.060
2024-05-09T19:01:34.076Z,0.060
2024-05-09T19:03:31.318Z,0.059
2024-05-09T19:05:34.237Z,0.056
2024-05-09T19:07:31.209Z,0.058
2024-05-09T19:09:35.174Z,0.059
2024-05-09T19:11:31.142Z,0.060
2024-05-09T19:13:31.347Z,0.060
2024-05-09T19:15:31.456Z,0.063
2024-05-09T19:17:31.183Z,0.063
2024-05-09T19:19:31.226Z,0.063
2024-05-09T19:21:31.127Z,0.062
2024-05-09T19:23:35.253Z,0.062
2024-05-09T19:25:31.215Z,0.063
2024-05-09T19:27:31.589Z,0.066
2024-05-09T19:29:31.103Z,0.062
2024-05-09T19:31:33.989Z,0.061
2024-05-09T19:33:31.726Z,0.061
2024-05-09T19:35:31.156Z,0.061
2024-05-09T19:37:31.756Z,0.058
2024-05-09T19:39:31.135Z,0.059
2024-05-09T19:41:31.214Z,0.058
2024-05-09T19:43:33.767Z,0.055
2024-05-09T19:45:31.299Z,0.055
2024-05-09T19:47:31.301Z,0.055
2024-05-09T19:49:31.290Z,0.058
2024-05-09T19:51:31.245Z,0.058
2024-05-09T19:53:31.817Z,0.060
2024-05-09T19:55:31.108Z,0.060
2024-05-09T19:57:34.204Z,0.058
2024-05-09T19:59:31.073Z,0.060
2024-05-09T20:01:31.221Z,0.061
2024-05-09T20:03:31.799Z,0.062
2024-05-09T20:05:31.503Z,0.061
2024-05-09T20:07:35.717Z,0.059
2024-05-09T20:09:31.124Z,0.059
2024-05-09T20:11:34.184Z,0.057
2024-05-09T20:13:31.262Z,0.055
2024-05-09T20:15:31.244Z,0.052
2024-05-09T20:17:31.239Z,0.053
2024-05-09T20:19:31.364Z,0.052
2024-05-09T20:21:31.188Z,0.052
2024-05-09T20:23:31.214Z,0.052
2024-05-09T20:25:31.253Z,0.050
2024-05-09T20:27:31.434Z,0.048
2024-05-09T20:29:31.180Z,0.049
2024-05-09T20:31:31.250Z,0.051
2024-05-09T20:33:31.217Z,0.050
2024-05-09T20:35:31.169Z,0.051
2024-05-09T20:37:31.164Z,0.052
2024-05-09T20:39:34.435Z,0.052
2024-05-09T20:41:33.010Z,0.053
2024-05-09T20:43:45.881Z,0.053
2024-05-09T20:46:31.221Z,0.055
2024-05-09T20:48:34.041Z,0.054
2024-05-09T20:50:38.033Z,0.054
2024-05-09T20:51:42.922Z,0.056
2024-05-09T20:54:32.580Z,0.056
2024-05-09T20:56:33.753Z,0.055
2024-05-09T20:58:31.251Z,0.056
2024-05-09T21:00:38.911Z,0.054
2024-05-09T21:01:45.578Z,0.053
2024-05-09T21:04:31.512Z,0.052
2024-05-09T21:06:31.173Z,0.055
2024-05-09T21:08:34.121Z,0.056
2024-05-09T21:10:33.424Z,0.056
2024-05-09T21:12:31.315Z,0.059
2024-05-09T21:14:31.156Z,0.061
2024-05-09T21:15:41.304Z,0.061
2024-05-09T21:18:31.372Z,0.061
2024-05-09T21:20:32.814Z,0.063
2024-05-09T21:22:36.146Z,0.062
2024-05-09T21:24:31.194Z,0.061
2024-05-09T21:26:31.134Z,0.058
2024-05-09T21:28:31.460Z,0.058
2024-05-09T21:30:38.795Z,0.058
2024-05-09T21:32:31.265Z,0.056
2024-05-09T21:34:31.224Z,0.056
2024-05-09T21:36:31.188Z,0.055
2024-05-09T21:38:31.228Z,0.055
2024-05-09T21:40:34.637Z,0.057
2024-05-09T21:42:31.190Z,0.058
2024-05-09T21:44:34.180Z,0.058
2024-05-09T21:46:31.343Z,0.058
2024-05-09T21:48:33.983Z,0.059
2024-05-09T21:50:40.280Z,0.059
2024-05-09T21:52:31.222Z,0.058
2024-05-09T21:54:31.188Z,0.058
2024-05-09T21:56:31.849Z,0.060
2024-05-09T21:58:31.438Z,0.061
2024-05-09T22:00:37.506Z,0.060
2024-05-09T22:02:31.337Z,0.062
2024-05-09T22:04:31.364Z,0.061
2024-05-09T22:06:31.199Z,0.059
2024-05-09T22:08:31.182Z,0.057
2024-05-09T22:10:34.587Z,0.057
2024-05-09T22:12:31.234Z,0.055
2024-05-09T22:14:33.100Z,0.054
2024-05-09T22:16:31.282Z,0.053
2024-05-09T22:18:34.237Z,0.053
2024-05-09T22:20:37.009Z,0.052
2024-05-09T22:22:31.283Z,0.054
2024-05-09T22:24:34.607Z,0.057
2024-05-09T22:26:31.219Z,0.059
2024-05-09T22:28:31.318Z,0.060
2024-05-09T22:30:36.074Z,0.062
2024-05-09T22:32:31.284Z,0.062
2024-05-09T22:34:31.358Z,0.062
2024-05-09T22:36:31.171Z,0.063
2024-05-09T22:38:31.248Z,0.065
2024-05-09T22:40:41.718Z,0.065
2024-05-09T22:42:31.675Z,0.063
2024-05-09T22:44:31.219Z,0.064
2024-05-09T22:46:31.309Z,0.064
2024-05-09T22:48:31.653Z,0.065
2024-05-09T22:50:33.411Z,0.066
2024-05-09T22:52:31.294Z,0.064
2024-05-09T22:54:31.268Z,0.063
2024-05-09T22:56:31.271Z,0.062
2024-05-09T22:58:31.277Z,0.062
2024-05-09T23:00:32.760Z,0.062
2024-05-09T23:02:31.282Z,0.062
2024-05-09T23:04:31.323Z,0.063
2024-05-09T23:06:34.889Z,0.064
2024-05-09T23:08:31.431Z,0.065
2024-05-09T23:10:35.988Z,0.064
2024-05-09T23:12:31.210Z,0.067
2024-05-09T23:14:31.303Z,0.068
2024-05-09T23:16:31.486Z,0.067
2024-05-09T23:18:31.307Z,0.068
2024-05-09T23:20:38.346Z,0.067
2024-05-09T23:22:31.344Z,0.068
2024-05-09T23:24:37.312Z,0.066
2024-05-09T23:26:31.388Z,0.067
2024-05-09T23:28:31.446Z,0.067
2024-05-09T23:30:37.555Z,0.066
2024-05-09T23:32:31.464Z,0.067
2024-05-09T23:34:31.349Z,0.068
2024-05-09T23:36:31.285Z,0.068
2024-05-09T23:38:31.418Z,0.068
2024-05-09T23:40:38.482Z,0.066
2024-05-09T23:42:31.294Z,0.065
2024-05-09T23:44:31.329Z,0.064
2024-05-09T23:46:33.868Z,0.064
2024-05-09T23:48:31.428Z,0.061
2024-05-09T23:50:40.859Z,0.060
2024-05-09T23:52:31.287Z,0.061
2024-05-09T23:54:31.487Z,0.060
2024-05-09T23:56:33.940Z,0.059
2024-05-09T23:58:37.236Z,0.061
